createdAt,value
2023-01-10T00:02:03.295Z,100854.47
2023-01-10T00:04:31.821Z,100859.59
2023-01-10T00:06:59.181Z,100864.75
2023-01-10T00:09:26.780Z,100869.03
2023-01-10T00:12:29.684Z,100875.13
2023-01-10T00:14:57.000Z,100886.31
2023-01-10T00:17:24.388Z,100888.84
2023-01-10T00:19:51.739Z,100885.22
2023-01-10T00:22:21.485Z,100892.91
2023-01-10T00:24:48.918Z,100903.25
2023-01-10T00:27:21.467Z,100903.06
2023-01-10T00:29:52.291Z,100910.72
2023-01-10T00:32:20.202Z,100909.69
2023-01-10T00:34:48.312Z,100919.97
2023-01-10T00:37:15.717Z,100919.00
2023-01-10T00:39:45.090Z,100927.59
2023-01-10T00:42:30.885Z,100919.69
2023-01-10T00:44:58.327Z,100941.41
2023-01-10T00:47:25.667Z,100941.50
2023-01-10T00:49:52.975Z,100949.38
2023-01-10T00:52:20.547Z,100946.84
2023-01-10T00:54:47.900Z,100951.25
2023-01-10T00:57:15.259Z,100953.91
2023-01-10T00:59:42.681Z,100959.19
2023-01-10T01:02:10.136Z,100959.19
2023-01-10T01:04:38.110Z,100968.69
2023-01-10T01:07:05.462Z,100965.22
2023-01-10T01:09:32.743Z,100963.47
2023-01-10T01:12:01.203Z,100963.47
2023-01-10T01:14:28.583Z,100968.69
2023-01-10T01:16:56.422Z,100984.25
2023-01-10T01:19:23.750Z,100984.22
2023-01-10T01:21:51.231Z,100986.81
2023-01-10T01:24:18.639Z,100994.53
2023-01-10T01:26:46.190Z,100996.19
2023-01-10T01:29:13.511Z,101002.25
2023-01-10T01:31:41.400Z,101008.28
2023-01-10T01:34:08.780Z,101021.44
2023-01-10T01:36:36.369Z,101025.03
2023-01-10T01:39:04.066Z,101025.91
2023-01-10T01:41:49.922Z,101026.72
2023-01-10T01:44:20.118Z,101029.41
2023-01-10T01:46:55.327Z,101037.16
2023-01-10T01:49:24.418Z,101044.94
2023-01-10T01:52:02.470Z,101051.84
2023-01-10T01:54:31.957Z,101045.63
2023-01-10T01:57:11.384Z,101049.91
2023-01-10T01:59:43.466Z,101052.38
2023-01-10T02:02:33.536Z,101053.13
2023-01-10T02:05:05.113Z,101060.00
2023-01-10T02:07:38.011Z,101064.22
2023-01-10T02:10:13.605Z,101061.56
2023-01-10T02:12:41.850Z,101071.97
2023-01-10T02:15:10.833Z,101072.78
2023-01-10T02:17:40.809Z,101087.66
2023-01-10T02:20:13.501Z,101097.41
2023-01-10T02:23:02.851Z,101074.28
2023-01-10T02:25:48.390Z,101068.50
2023-01-10T02:28:43.501Z,101072.22
2023-01-10T02:31:20.469Z,101073.28
2023-01-10T02:33:59.327Z,101067.31
2023-01-10T02:37:00.953Z,101074.28
2023-01-10T02:39:49.493Z,101079.50
2023-01-10T02:42:29.630Z,101077.69
2023-01-10T02:45:35.875Z,101085.44
2023-01-10T02:48:03.901Z,101079.28
2023-01-10T02:50:31.157Z,101078.38
2023-01-10T02:53:01.823Z,101083.56
2023-01-10T02:55:41.270Z,101084.34
2023-01-10T02:58:31.732Z,101085.13
2023-01-10T03:01:07.432Z,101089.41
2023-01-10T03:04:16.668Z,101087.63
2023-01-10T03:06:59.672Z,101091.13
2023-01-10T03:09:39.616Z,101105.16
2023-01-10T03:12:19.674Z,101103.44
2023-01-10T03:14:48.976Z,101106.91
2023-01-10T03:17:19.559Z,101102.56
2023-01-10T03:19:51.617Z,101110.38
2023-01-10T03:22:18.939Z,101112.06
2023-01-10T03:24:49.308Z,101111.19
2023-01-10T03:27:37.951Z,101119.13
2023-01-10T03:30:28.441Z,101131.44
2023-01-10T03:32:57.437Z,101139.53
2023-01-10T03:35:52.138Z,101133.69
2023-01-10T03:38:32.778Z,101132.28
2023-01-10T03:41:04.773Z,101138.63
2023-01-10T03:43:56.613Z,101137.06
2023-01-10T03:46:35.365Z,101130.31
2023-01-10T03:49:05.233Z,101135.56
2023-01-10T03:51:33.846Z,101153.03
2023-01-10T03:54:02.394Z,101151.25
2023-01-10T03:56:31.316Z,101152.88
2023-01-10T03:58:58.991Z,101160.63
2023-01-10T04:01:27.391Z,101165.72
2023-01-10T04:03:55.087Z,101172.53
2023-01-10T04:06:22.429Z,101170.66
2023-01-10T04:08:49.656Z,101169.78
2023-01-10T04:11:16.922Z,101171.41
2023-01-10T04:13:44.253Z,101174.00
2023-01-10T04:16:12.123Z,101177.44
2023-01-10T04:18:39.425Z,101186.13
2023-01-10T04:21:09.621Z,101177.44
2023-01-10T04:23:40.013Z,101172.22
2023-01-10T04:26:07.491Z,101180.09
2023-01-10T04:28:34.774Z,101186.25
2023-01-10T04:31:02.112Z,101183.66
2023-01-10T04:33:31.476Z,101196.75
2023-01-10T04:35:58.839Z,101192.41
2023-01-10T04:38:26.123Z,101201.97
2023-01-10T04:40:55.005Z,101208.03
2023-01-10T04:43:23.399Z,101212.41
2023-01-10T04:45:50.841Z,101210.69
2023-01-10T04:48:20.974Z,101203.78
2023-01-10T04:50:52.341Z,101226.50
2023-01-10T04:53:20.552Z,101216.88
2023-01-10T04:55:48.564Z,101227.25
2023-01-10T04:58:15.896Z,101227.25
2023-01-10T05:00:53.783Z,101233.22
2023-01-10T05:03:21.425Z,101244.44
2023-01-10T05:05:48.812Z,101242.63
2023-01-10T05:08:16.326Z,101249.53
2023-01-10T05:10:44.060Z,101247.78
2023-01-10T05:13:11.396Z,101257.34
2023-01-10T05:15:38.767Z,101255.69
2023-01-10T05:18:06.031Z,101261.88
2023-01-10T05:20:33.316Z,101256.75
2023-01-10T05:23:01.989Z,101263.84
2023-01-10T05:25:31.405Z,101270.00
2023-01-10T05:27:58.711Z,101270.94
2023-01-10T05:30:26.040Z,101287.56
2023-01-10T05:32:53.345Z,101275.34
2023-01-10T05:35:20.796Z,101284.09
2023-01-10T05:37:48.106Z,101283.22
2023-01-10T05:40:15.556Z,101278.81
2023-01-10T05:42:42.928Z,101274.47
2023-01-10T05:45:10.681Z,101282.16
2023-01-10T05:47:38.097Z,101282.09
2023-01-10T05:50:05.765Z,101279.50
2023-01-10T05:52:33.093Z,101282.97
2023-01-10T05:55:01.955Z,101291.59
2023-01-10T05:57:29.295Z,101290.72
2023-01-10T05:59:56.572Z,101300.28
2023-01-10T06:02:26.597Z,101303.69
2023-01-10T06:04:55.522Z,101311.53
2023-01-10T06:07:24.872Z,101304.63
2023-01-10T06:09:52.258Z,101319.56
2023-01-10T06:12:19.672Z,101316.19
2023-01-10T06:14:47.385Z,101304.97
2023-01-10T06:17:14.678Z,101312.94
2023-01-10T06:19:41.904Z,101311.34
2023-01-10T06:22:09.241Z,101316.69
2023-01-10T06:24:36.640Z,101315.97
2023-01-10T06:27:03.940Z,101315.22
2023-01-10T06:29:31.575Z,101329.28
2023-01-10T06:31:58.977Z,101319.78
2023-01-10T06:34:26.727Z,101321.63
2023-01-10T06:36:54.363Z,101331.22
2023-01-10T06:39:21.722Z,101335.63
2023-01-10T06:41:49.053Z,101346.06
2023-01-10T06:44:18.512Z,101351.28
2023-01-10T06:46:45.977Z,101346.94
2023-01-10T06:49:13.293Z,101335.72
2023-01-10T06:51:40.761Z,101334.84
2023-01-10T06:54:08.267Z,101346.94
2023-01-10T06:56:35.635Z,101355.56
2023-01-10T06:59:02.939Z,101343.25
2023-01-10T07:01:30.758Z,101342.19
2023-01-10T07:03:58.393Z,101330.75
2023-01-10T07:06:25.786Z,101334.97
2023-01-10T07:08:55.484Z,101327.78
2023-01-10T07:11:23.232Z,101342.44
2023-01-10T07:13:54.072Z,101345.78
2023-01-10T07:16:21.550Z,101350.84
2023-01-10T07:18:48.948Z,101357.66
2023-01-10T07:21:18.144Z,101361.81
2023-01-10T07:23:51.822Z,101360.78
2023-01-10T07:26:19.671Z,101380.72
2023-01-10T07:28:52.072Z,101410.22
2023-01-10T07:31:20.573Z,101422.44
2023-01-10T07:33:47.905Z,101423.41
2023-01-10T07:36:15.430Z,101426.00
2023-01-10T07:38:42.730Z,101432.09
2023-01-10T07:41:10.295Z,101433.00
2023-01-10T07:43:38.810Z,101434.72
2023-01-10T07:46:12.497Z,101427.72
2023-01-10T07:48:42.061Z,101429.47
2023-01-10T07:51:09.831Z,101432.09
2023-01-10T07:53:38.227Z,101440.88
2023-01-10T07:56:05.916Z,101434.97
2023-01-10T07:58:33.357Z,101450.72
2023-01-10T08:01:05.082Z,101455.94
2023-01-10T08:03:33.476Z,101461.22
2023-01-10T08:06:03.680Z,101452.63
2023-01-10T08:08:31.825Z,101458.84
2023-01-10T08:11:05.303Z,101465.78
2023-01-10T08:13:33.218Z,101455.41
2023-01-10T08:16:05.601Z,101456.22
2023-01-10T08:18:33.502Z,101450.19
2023-01-10T08:21:01.038Z,101450.19
2023-01-10T08:23:28.434Z,101444.13
2023-01-10T08:25:58.875Z,101444.19
2023-01-10T08:28:27.684Z,101448.66
2023-01-10T08:30:56.226Z,101471.38
2023-01-10T08:33:25.236Z,101468.03
2023-01-10T08:35:52.553Z,101470.84
2023-01-10T08:38:19.925Z,101472.66
2023-01-10T08:40:47.392Z,101480.72
2023-01-10T08:43:15.210Z,101480.84
2023-01-10T08:45:42.613Z,101485.34
2023-01-10T08:48:10.605Z,101485.47
2023-01-10T08:50:38.069Z,101492.53
2023-01-10T08:53:05.436Z,101491.81
2023-01-10T08:55:35.544Z,101493.75
2023-01-10T08:58:03.055Z,101501.81
2023-01-10T09:00:31.371Z,101496.72
2023-01-10T09:02:58.787Z,101496.84
2023-01-10T09:05:28.117Z,101511.66
2023-01-10T09:08:01.490Z,101506.56
2023-01-10T09:10:29.915Z,101513.53
2023-01-10T09:13:01.891Z,101511.88
2023-01-10T09:15:32.406Z,101506.66
2023-01-10T09:18:02.741Z,101503.34
2023-01-10T09:20:34.899Z,101515.66
2023-01-10T09:23:11.023Z,101514.94
2023-01-10T09:25:38.878Z,101512.47
2023-01-10T09:28:06.261Z,101509.13
2023-01-10T09:30:34.009Z,101515.22
2023-01-10T09:33:01.603Z,101524.00
2023-01-10T09:35:30.807Z,101522.44
2023-01-10T09:38:03.386Z,101518.22
2023-01-10T09:40:39.648Z,101523.66
2023-01-10T09:43:21.444Z,101517.69
2023-01-10T09:46:05.515Z,101527.44
2023-01-10T09:48:53.968Z,101523.25
2023-01-10T09:51:27.391Z,101524.19
2023-01-10T09:54:10.683Z,101519.97
2023-01-10T09:56:41.521Z,101525.31
2023-01-10T09:59:31.260Z,101527.13
2023-01-10T10:02:06.248Z,101526.31
2023-01-10T10:04:36.776Z,101533.31
2023-01-10T10:07:13.529Z,101535.09
2023-01-10T10:09:42.532Z,101541.19
2023-01-10T10:12:37.543Z,101550.81
2023-01-10T10:15:26.225Z,101547.31
2023-01-10T10:18:03.016Z,101544.75
2023-01-10T10:20:56.917Z,101542.25
2023-01-10T10:23:48.787Z,101545.81
2023-01-10T10:26:34.614Z,101532.88
2023-01-10T10:29:11.191Z,101531.25
2023-01-10T10:32:18.783Z,101522.75
2023-01-10T10:34:51.106Z,101530.72
2023-01-10T10:37:44.219Z,101521.31
2023-01-10T10:40:14.592Z,101517.88
2023-01-10T10:42:49.430Z,101501.38
2023-01-10T10:45:25.264Z,101507.50
2023-01-10T10:48:00.955Z,101508.47
2023-01-10T10:50:35.708Z,101510.31
2023-01-10T10:53:06.864Z,101503.34
2023-01-10T10:55:39.051Z,101514.69
2023-01-10T10:58:07.708Z,101511.25
2023-01-10T11:00:35.163Z,101503.41
2023-01-10T11:03:24.319Z,101506.09
2023-01-10T11:05:52.523Z,101505.25
2023-01-10T11:08:21.948Z,101497.47
2023-01-10T11:10:53.931Z,101501.81
2023-01-10T11:13:33.491Z,101506.25
2023-01-10T11:16:02.724Z,101499.28
2023-01-10T11:18:32.232Z,101499.34
2023-01-10T11:21:01.723Z,101496.84
2023-01-10T11:23:47.730Z,101497.72
2023-01-10T11:26:24.101Z,101488.19
2023-01-10T11:29:03.876Z,101483.78
2023-01-10T11:31:32.447Z,101482.88
2023-01-10T11:34:04.924Z,101487.31
2023-01-10T11:36:53.493Z,101491.72
2023-01-10T11:39:20.904Z,101481.25
2023-01-10T11:41:49.780Z,101484.81
2023-01-10T11:44:17.771Z,101479.69
2023-01-10T11:46:46.897Z,101480.63
2023-01-10T11:49:35.361Z,101473.66
2023-01-10T11:52:28.465Z,101467.59
2023-01-10T11:55:01.063Z,101475.50
2023-01-10T11:57:32.350Z,101462.47
2023-01-10T12:00:07.022Z,101470.38
2023-01-10T12:02:44.626Z,101469.56
2023-01-10T12:05:21.214Z,101463.41
2023-01-10T12:08:10.571Z,101459.91
2023-01-10T12:10:38.109Z,101460.78
2023-01-10T12:13:15.100Z,101461.66
2023-01-10T12:15:42.806Z,101451.22
2023-01-10T12:18:11.038Z,101452.09
2023-01-10T12:20:58.040Z,101445.09
2023-01-10T12:23:25.876Z,101435.47
2023-01-10T12:26:07.073Z,101434.63
2023-01-10T12:28:42.736Z,101433.69
2023-01-10T12:31:15.519Z,101438.91
2023-01-10T12:33:53.611Z,101436.31
2023-01-10T12:36:34.725Z,101433.69
2023-01-10T12:39:20.586Z,101432.00
2023-01-10T12:42:18.028Z,101419.72
2023-01-10T12:44:50.584Z,101406.56
2023-01-10T12:47:49.029Z,101400.41
2023-01-10T12:50:25.079Z,101402.97
2023-01-10T12:53:23.532Z,101393.38
2023-01-10T12:55:55.380Z,101392.50
2023-01-10T12:58:35.952Z,101392.56
2023-01-10T13:01:06.962Z,101380.31
2023-01-10T13:03:36.346Z,101379.47
2023-01-10T13:06:04.006Z,101376.03
2023-01-10T13:08:36.512Z,101373.41
2023-01-10T13:11:07.750Z,101371.63
2023-01-10T13:13:38.686Z,101363.81
2023-01-10T13:16:18.621Z,101360.28
2023-01-10T13:19:06.024Z,101372.44
2023-01-10T13:21:34.568Z,101369.75
2023-01-10T13:24:18.293Z,101375.78
2023-01-10T13:27:04.046Z,101371.41
2023-01-10T13:29:38.968Z,101365.28
2023-01-10T13:32:36.801Z,101369.63
2023-01-10T13:35:17.639Z,101373.91
2023-01-10T13:37:50.500Z,101379.06
2023-01-10T13:40:26.011Z,101382.56
2023-01-10T13:43:44.746Z,101377.22
2023-01-10T13:46:15.325Z,101380.59
2023-01-10T13:49:03.649Z,101383.22
2023-01-10T13:51:31.692Z,101370.09
2023-01-10T13:53:59.933Z,101379.69
2023-01-10T13:56:34.823Z,101372.66
2023-01-10T13:59:22.305Z,101368.28
2023-01-10T14:02:11.533Z,101354.25
2023-01-10T14:04:49.828Z,101341.94
2023-01-10T14:07:33.408Z,101330.53
2023-01-10T14:10:39.158Z,101330.41
2023-01-10T14:13:16.886Z,101314.59
2023-01-10T14:15:47.624Z,101319.72
2023-01-10T14:18:21.040Z,101318.75
2023-01-10T14:21:03.202Z,101312.56
2023-01-10T14:23:37.304Z,101300.31
2023-01-10T14:26:05.410Z,101309.03
2023-01-10T14:28:35.456Z,101296.72
2023-01-10T14:31:02.795Z,101290.63
2023-01-10T14:33:32.104Z,101289.69
2023-01-10T14:36:03.574Z,101271.38
2023-01-10T14:38:35.071Z,101265.19
2023-01-10T14:41:06.724Z,101264.31
2023-01-10T14:43:43.675Z,101258.13
2023-01-10T14:46:14.154Z,101265.09
2023-01-10T14:48:49.133Z,101252.81
2023-01-10T14:51:21.913Z,101251.06
2023-01-10T14:54:15.785Z,101241.41
2023-01-10T14:56:46.610Z,101240.50
2023-01-10T14:59:24.099Z,101242.22
2023-01-10T15:01:55.188Z,101235.25
2023-01-10T15:04:26.198Z,101241.38
2023-01-10T15:07:03.192Z,101222.19
2023-01-10T15:09:33.910Z,101224.81
2023-01-10T15:12:04.621Z,101222.13
2023-01-10T15:14:33.734Z,101213.47
2023-01-10T15:17:05.533Z,101211.63
2023-01-10T15:19:38.046Z,101203.72
2023-01-10T15:22:20.552Z,101195.00
2023-01-10T15:25:01.823Z,101188.78
2023-01-10T15:27:31.083Z,101176.59
2023-01-10T15:30:02.719Z,101180.03
2023-01-10T15:32:39.517Z,101179.16
2023-01-10T15:35:11.417Z,101173.94
2023-01-10T15:37:41.105Z,101177.44
2023-01-10T15:40:22.532Z,101174.81
2023-01-10T15:42:50.112Z,101173.09
2023-01-10T15:45:31.662Z,101172.25
2023-01-10T15:48:05.331Z,101166.19
2023-01-10T15:50:40.656Z,101168.81
2023-01-10T15:53:10.317Z,101160.91
2023-01-10T15:56:08.996Z,101151.34
2023-01-10T15:58:36.984Z,101149.59
2023-01-10T16:01:05.351Z,101146.09
2023-01-10T16:03:38.823Z,101143.44
2023-01-10T16:06:12.486Z,101140.84
2023-01-10T16:08:39.803Z,101141.75
2023-01-10T16:11:39.704Z,101143.50
2023-01-10T16:14:07.149Z,101127.00
2023-01-10T16:16:34.723Z,101120.84
2023-01-10T16:19:03.022Z,101134.88
2023-01-10T16:21:38.249Z,101125.28
2023-01-10T16:24:07.778Z,101120.06
2023-01-10T16:26:36.147Z,101107.00
2023-01-10T16:29:03.402Z,101107.06
2023-01-10T16:31:31.899Z,101092.19
2023-01-10T16:34:01.940Z,101092.19
2023-01-10T16:36:31.386Z,101089.53
2023-01-10T16:38:58.905Z,101084.31
2023-01-10T16:41:46.351Z,101076.41
2023-01-10T16:44:13.814Z,101062.47
2023-01-10T16:46:41.262Z,101072.03
2023-01-10T16:49:08.456Z,101053.69
2023-01-10T16:51:39.103Z,101051.97
2023-01-10T16:54:06.456Z,101056.31
2023-01-10T16:56:33.808Z,101049.34
2023-01-10T16:59:01.122Z,101037.16
2023-01-10T17:01:34.305Z,101042.38
2023-01-10T17:04:02.084Z,101037.09
2023-01-10T17:06:29.659Z,101027.47
2023-01-10T17:08:57.493Z,101028.34
2023-01-10T17:11:32.275Z,101012.59
2023-01-10T17:14:01.546Z,101010.84
2023-01-10T17:16:29.015Z,101000.41
2023-01-10T17:18:56.789Z,100996.88
2023-01-10T17:21:24.682Z,100974.22
2023-01-10T17:23:52.008Z,100964.59
2023-01-10T17:26:20.132Z,100955.00
2023-01-10T17:28:52.756Z,100943.69
2023-01-10T17:31:20.464Z,100941.94
2023-01-10T17:33:49.351Z,100921.03
2023-01-10T17:36:19.484Z,100915.75
2023-01-10T17:38:47.167Z,100926.22
2023-01-10T17:41:14.694Z,100923.56
2023-01-10T17:43:41.983Z,100916.53
2023-01-10T17:46:11.072Z,100907.88
2023-01-10T17:48:38.595Z,100896.59
2023-01-10T17:51:06.300Z,100899.22
2023-01-10T17:53:34.050Z,100896.59
2023-01-10T17:56:02.033Z,100894.81
2023-01-10T17:58:29.435Z,100882.63
2023-01-10T18:00:57.735Z,100870.41
2023-01-10T18:03:25.299Z,100852.09
2023-01-10T18:05:55.833Z,100862.53
2023-01-10T18:08:24.248Z,100843.31
2023-01-10T18:10:51.947Z,100837.22
2023-01-10T18:13:20.978Z,100838.09
2023-01-10T18:15:49.872Z,100822.38
2023-01-10T18:18:18.021Z,100826.72
2023-01-10T18:20:45.556Z,100816.28
2023-01-10T18:23:23.280Z,100823.25
2023-01-10T18:26:04.565Z,100813.66
2023-01-10T18:28:41.753Z,100805.81
2023-01-10T18:31:16.981Z,100811.06
2023-01-10T18:33:45.807Z,100802.34
2023-01-10T18:36:18.641Z,100792.72
2023-01-10T18:38:46.901Z,100783.09
2023-01-10T18:41:15.314Z,100781.41
2023-01-10T18:43:42.720Z,100767.44
2023-01-10T18:46:13.098Z,100768.28
2023-01-10T18:48:40.432Z,100754.34
2023-01-10T18:51:10.098Z,100753.50
2023-01-10T18:53:38.497Z,100751.75
2023-01-10T18:56:06.186Z,100740.38
2023-01-10T18:58:39.880Z,100747.38
2023-01-10T19:01:14.042Z,100744.75
2023-01-10T19:03:42.305Z,100729.06
2023-01-10T19:06:11.911Z,100698.56
2023-01-10T19:08:39.606Z,100706.41
2023-01-10T19:11:14.047Z,100701.19
2023-01-10T19:13:44.014Z,100704.63
2023-01-10T19:16:23.496Z,100703.75
2023-01-10T19:19:00.730Z,100709.00
2023-01-10T19:21:30.730Z,100694.16
2023-01-10T19:24:03.459Z,100688.03
2023-01-10T19:26:33.003Z,100694.09
2023-01-10T19:29:03.084Z,100696.75
2023-01-10T19:31:31.658Z,100671.50
2023-01-10T19:34:00.420Z,100667.16
2023-01-10T19:36:28.561Z,100675.84
2023-01-10T19:38:57.204Z,100674.13
2023-01-10T19:41:26.348Z,100666.28
2023-01-10T19:44:01.602Z,100657.63
2023-01-10T19:46:37.055Z,100662.00
2023-01-10T19:49:08.082Z,100660.25
2023-01-10T19:51:40.293Z,100652.47
2023-01-10T19:54:08.879Z,100659.44
2023-01-10T19:56:36.968Z,100658.59
2023-01-10T19:59:04.369Z,100636.00
2023-01-10T20:01:32.155Z,100636.03
2023-01-10T20:04:02.477Z,100623.84
2023-01-10T20:06:31.702Z,100624.75
2023-01-10T20:08:59.402Z,100623.06
2023-01-10T20:11:37.922Z,100609.16
2023-01-10T20:14:12.068Z,100609.16
2023-01-10T20:16:39.501Z,100606.59
2023-01-10T20:19:10.085Z,100581.31
2023-01-10T20:21:37.916Z,100583.94
2023-01-10T20:24:13.526Z,100590.06
2023-01-10T20:26:40.972Z,100590.06
2023-01-10T20:29:08.833Z,100580.53
2023-01-10T20:31:38.874Z,100584.88
2023-01-10T20:34:06.208Z,100564.00
2023-01-10T20:36:33.657Z,100573.59
2023-01-10T20:39:00.991Z,100570.13
2023-01-10T20:41:30.156Z,100575.38
2023-01-10T20:43:58.290Z,100577.19
2023-01-10T20:46:32.052Z,100566.75
2023-01-10T20:49:02.380Z,100575.50
2023-01-10T20:51:37.840Z,100558.09
2023-01-10T20:54:08.262Z,100550.31
2023-01-10T20:56:35.847Z,100552.91
2023-01-10T20:59:04.210Z,100532.03
2023-01-10T21:01:35.209Z,100528.59
2023-01-10T21:04:05.759Z,100535.63
2023-01-10T21:06:34.657Z,100532.19
2023-01-10T21:09:02.194Z,100542.72
2023-01-10T21:11:29.716Z,100525.31
2023-01-10T21:13:57.158Z,100531.44
2023-01-10T21:16:25.718Z,100533.22
2023-01-10T21:18:53.289Z,100516.72
2023-01-10T21:21:24.911Z,100507.22
2023-01-10T21:23:54.174Z,100505.53
2023-01-10T21:26:22.378Z,100515.19
2023-01-10T21:28:49.757Z,100501.25
2023-01-10T21:31:21.867Z,100491.72
2023-01-10T21:33:50.279Z,100488.28
2023-01-10T21:36:18.207Z,100470.03
2023-01-10T21:38:45.657Z,100481.41
2023-01-10T21:41:35.550Z,100475.34
2023-01-10T21:44:04.397Z,100476.28
2023-01-10T21:46:32.244Z,100467.63
2023-01-10T21:49:01.570Z,100455.47
2023-01-10T21:51:28.941Z,100443.31
2023-01-10T21:53:56.240Z,100450.34
2023-01-10T21:56:23.642Z,100438.16
2023-01-10T21:58:51.049Z,100433.00
2023-01-10T22:01:18.515Z,100434.78
2023-01-10T22:03:46.272Z,100435.69
2023-01-10T22:06:16.334Z,100434.00
2023-01-10T22:08:43.795Z,100426.16
2023-01-10T22:11:11.365Z,100422.72
2023-01-10T22:13:39.262Z,100423.63
2023-01-10T22:16:07.228Z,100416.66
2023-01-10T22:18:35.000Z,100423.66
2023-01-10T22:21:02.646Z,100431.56
2023-01-10T22:23:31.008Z,100429.88
2023-01-10T22:26:08.332Z,100414.19
2023-01-10T22:28:35.815Z,100417.72
2023-01-10T22:31:04.208Z,100415.97
2023-01-10T22:33:35.988Z,100399.44
2023-01-10T22:36:10.158Z,100406.47
2023-01-10T22:38:38.001Z,100396.00
2023-01-10T22:41:10.633Z,100392.53
2023-01-10T22:43:38.298Z,100387.31
2023-01-10T22:46:06.631Z,100389.09
2023-01-10T22:48:38.632Z,100384.75
2023-01-10T22:51:06.095Z,100390.88
2023-01-10T22:53:34.884Z,100386.50
2023-01-10T22:56:04.106Z,100390.91
2023-01-10T22:58:31.836Z,100384.81
2023-01-10T23:01:01.341Z,100390.09
2023-01-10T23:03:29.128Z,100396.19
2023-01-10T23:05:57.824Z,100385.75
2023-01-10T23:08:29.248Z,100393.63
2023-01-10T23:10:56.552Z,100384.88
2023-01-10T23:13:24.552Z,100394.53
2023-01-10T23:16:04.086Z,100384.03
2023-01-10T23:18:31.813Z,100383.22
2023-01-10T23:20:59.856Z,100374.47
2023-01-10T23:23:28.988Z,100384.09
2023-01-10T23:26:02.560Z,100369.22
2023-01-10T23:28:39.403Z,100353.56
2023-01-10T23:31:07.616Z,100342.22
2023-01-10T23:33:35.656Z,100355.34
2023-01-10T23:36:03.768Z,100363.22
2023-01-10T23:38:31.604Z,100376.34
2023-01-10T23:40:59.497Z,100351.88
2023-01-10T23:43:26.978Z,100363.25
2023-01-10T23:45:58.408Z,100348.44
2023-01-10T23:48:25.928Z,100358.94
2023-01-10T23:50:53.810Z,100347.59
2023-01-10T23:53:21.126Z,100352.84
2023-01-10T23:55:48.463Z,100349.38
2023-01-10T23:58:17.077Z,100338.91
